sensor_id;sensor_type;location;lat;lon;timestamp;temperature;humidity
16879;DHT22;8556;52.218;9.884;2023-09-19T00:00:21;15.40;99.90
16879;DHT22;8556;52.218;9.884;2023-09-19T00:02:54;15.60;99.90
16879;DHT22;8556;52.218;9.884;2023-09-19T00:05:22;15.60;99.90
16879;DHT22;8556;52.218;9.884;2023-09-19T00:07:53;15.70;99.90
16879;DHT22;8556;52.218;9.884;2023-09-19T00:10:20;15.90;99.90
16879;DHT22;8556;52.218;9.884;2023-09-19T00:12:50;15.70;99.90
16879;DHT22;8556;52.218;9.884;2023-09-19T00:15:17;15.80;99.90
16879;DHT22;8556;52.218;9.884;2023-09-19T00:17:44;15.90;99.90
16879;DHT22;8556;52.218;9.884;2023-09-19T00:20:12;15.90;99.90
16879;DHT22;8556;52.218;9.884;2023-09-19T00:22:41;15.90;99.90
16879;DHT22;8556;52.218;9.884;2023-09-19T00:25:08;15.90;99.90
16879;DHT22;8556;52.218;9.884;2023-09-19T00:27:37;15.90;99.90
16879;DHT22;8556;52.218;9.884;2023-09-19T00:30:08;15.90;99.90
16879;DHT22;8556;52.218;9.884;2023-09-19T00:32:40;15.90;99.90
16879;DHT22;8556;52.218;9.884;2023-09-19T00:35:07;15.70;99.90
16879;DHT22;8556;52.218;9.884;2023-09-19T00:37:36;15.90;99.90
16879;DHT22;8556;52.218;9.884;2023-09-19T00:40:06;15.80;99.90
16879;DHT22;8556;52.218;9.884;2023-09-19T00:42:36;15.80;99.90
16879;DHT22;8556;52.218;9.884;2023-09-19T00:45:04;15.80;99.90
16879;DHT22;8556;52.218;9.884;2023-09-19T00:47:32;15.80;99.90
16879;DHT22;8556;52.218;9.884;2023-09-19T00:49:59;15.90;99.90
16879;DHT22;8556;52.218;9.884;2023-09-19T00:52:27;15.90;99.90
16879;DHT22;8556;52.218;9.884;2023-09-19T00:54:55;15.90;99.90
16879;DHT22;8556;52.218;9.884;2023-09-19T00:57:22;15.90;99.90
16879;DHT22;8556;52.218;9.884;2023-09-19T00:59:52;16.00;99.90
16879;DHT22;8556;52.218;9.884;2023-09-19T01:02:20;16.00;99.90
16879;DHT22;8556;52.218;9.884;2023-09-19T01:04:47;16.10;99.90
16879;DHT22;8556;52.218;9.884;2023-09-19T01:07:15;16.10;99.90
16879;DHT22;8556;52.218;9.884;2023-09-19T01:09:42;16.10;99.90
16879;DHT22;8556;52.218;9.884;2023-09-19T01:12:12;16.10;99.90
16879;DHT22;8556;52.218;9.884;2023-09-19T01:14:48;16.20;99.90
16879;DHT22;8556;52.218;9.884;2023-09-19T01:17:25;16.10;99.90
16879;DHT22;8556;52.218;9.884;2023-09-19T01:20:07;16.10;99.90
16879;DHT22;8556;52.218;9.884;2023-09-19T01:22:46;16.00;99.90
16879;DHT22;8556;52.218;9.884;2023-09-19T01:25:42;16.00;99.90
16879;DHT22;8556;52.218;9.884;2023-09-19T01:28:20;16.00;99.90
16879;DHT22;8556;52.218;9.884;2023-09-19T01:30:56;15.90;99.90
16879;DHT22;8556;52.218;9.884;2023-09-19T01:33:24;15.90;99.90
16879;DHT22;8556;52.218;9.884;2023-09-19T01:35:51;16.10;99.90
16879;DHT22;8556;52.218;9.884;2023-09-19T01:38:24;16.00;99.90
16879;DHT22;8556;52.218;9.884;2023-09-19T01:40:57;16.00;99.90
16879;DHT22;8556;52.218;9.884;2023-09-19T01:43:32;15.80;99.90
16879;DHT22;8556;52.218;9.884;2023-09-19T01:46:06;16.00;99.90
16879;DHT22;8556;52.218;9.884;2023-09-19T01:48:40;16.00;99.90
16879;DHT22;8556;52.218;9.884;2023-09-19T01:51:10;16.10;99.90
16879;DHT22;8556;52.218;9.884;2023-09-19T01:53:44;16.20;99.90
16879;DHT22;8556;52.218;9.884;2023-09-19T01:56:22;16.20;99.90
16879;DHT22;8556;52.218;9.884;2023-09-19T01:58:54;16.30;99.90
16879;DHT22;8556;52.218;9.884;2023-09-19T02:01:25;16.30;99.90
16879;DHT22;8556;52.218;9.884;2023-09-19T02:03:53;16.30;99.90
16879;DHT22;8556;52.218;9.884;2023-09-19T02:06:22;16.30;99.90
16879;DHT22;8556;52.218;9.884;2023-09-19T02:08:50;16.40;99.90
16879;DHT22;8556;52.218;9.884;2023-09-19T02:11:17;16.40;99.90
16879;DHT22;8556;52.218;9.884;2023-09-19T02:13:44;16.30;99.90
16879;DHT22;8556;52.218;9.884;2023-09-19T02:16:11;16.40;99.90
16879;DHT22;8556;52.218;9.884;2023-09-19T02:18:39;16.40;99.90
16879;DHT22;8556;52.218;9.884;2023-09-19T02:21:06;16.50;99.90
16879;DHT22;8556;52.218;9.884;2023-09-19T02:23:35;16.40;99.90
16879;DHT22;8556;52.218;9.884;2023-09-19T02:26:02;16.30;99.90
16879;DHT22;8556;52.218;9.884;2023-09-19T02:28:29;16.40;99.90
16879;DHT22;8556;52.218;9.884;2023-09-19T02:30:57;16.30;99.90
16879;DHT22;8556;52.218;9.884;2023-09-19T02:33:24;16.30;99.90
16879;DHT22;8556;52.218;9.884;2023-09-19T02:35:56;16.30;99.90
16879;DHT22;8556;52.218;9.884;2023-09-19T02:38:24;16.40;99.90
16879;DHT22;8556;52.218;9.884;2023-09-19T02:40:51;16.40;99.90
16879;DHT22;8556;52.218;9.884;2023-09-19T02:43:18;16.40;99.90
16879;DHT22;8556;52.218;9.884;2023-09-19T02:45:46;16.30;99.90
16879;DHT22;8556;52.218;9.884;2023-09-19T02:48:15;16.30;99.90
16879;DHT22;8556;52.218;9.884;2023-09-19T02:50:42;16.40;99.90
16879;DHT22;8556;52.218;9.884;2023-09-19T02:53:11;16.20;99.90
16879;DHT22;8556;52.218;9.884;2023-09-19T02:55:39;16.00;99.90
16879;DHT22;8556;52.218;9.884;2023-09-19T02:58:07;16.00;99.90
16879;DHT22;8556;52.218;9.884;2023-09-19T03:00:37;16.10;99.90
16879;DHT22;8556;52.218;9.884;2023-09-19T03:03:04;16.10;99.90
16879;DHT22;8556;52.218;9.884;2023-09-19T03:05:33;16.10;99.90
16879;DHT22;8556;52.218;9.884;2023-09-19T03:08:01;16.00;99.90
16879;DHT22;8556;52.218;9.884;2023-09-19T03:10:29;16.10;99.90
16879;DHT22;8556;52.218;9.884;2023-09-19T03:12:57;16.10;99.90
16879;DHT22;8556;52.218;9.884;2023-09-19T03:15:25;16.10;99.90
16879;DHT22;8556;52.218;9.884;2023-09-19T03:17:52;16.10;99.90
16879;DHT22;8556;52.218;9.884;2023-09-19T03:20:19;16.00;99.90
16879;DHT22;8556;52.218;9.884;2023-09-19T03:22:46;16.00;99.90
16879;DHT22;8556;52.218;9.884;2023-09-19T03:25:13;16.00;99.90
16879;DHT22;8556;52.218;9.884;2023-09-19T03:27:42;16.00;99.90
16879;DHT22;8556;52.218;9.884;2023-09-19T03:30:09;16.10;99.90
16879;DHT22;8556;52.218;9.884;2023-09-19T03:32:44;16.10;99.90
16879;DHT22;8556;52.218;9.884;2023-09-19T03:35:12;16.00;99.90
16879;DHT22;8556;52.218;9.884;2023-09-19T03:37:40;16.00;99.90
16879;DHT22;8556;52.218;9.884;2023-09-19T03:40:08;16.00;99.90
16879;DHT22;8556;52.218;9.884;2023-09-19T03:42:38;16.00;99.90
16879;DHT22;8556;52.218;9.884;2023-09-19T03:45:07;15.90;99.90
16879;DHT22;8556;52.218;9.884;2023-09-19T03:47:37;15.90;99.90
16879;DHT22;8556;52.218;9.884;2023-09-19T03:50:05;15.90;99.90
16879;DHT22;8556;52.218;9.884;2023-09-19T03:52:32;15.80;99.90
16879;DHT22;8556;52.218;9.884;2023-09-19T03:54:59;15.80;99.90
16879;DHT22;8556;52.218;9.884;2023-09-19T03:57:28;15.60;99.90
16879;DHT22;8556;52.218;9.884;2023-09-19T03:59:54;15.70;99.90
16879;DHT22;8556;52.218;9.884;2023-09-19T04:02:23;15.70;99.90
16879;DHT22;8556;52.218;9.884;2023-09-19T04:04:50;15.70;99.90
16879;DHT22;8556;52.218;9.884;2023-09-19T04:07:17;15.70;99.90
16879;DHT22;8556;52.218;9.884;2023-09-19T04:09:47;15.50;99.90
16879;DHT22;8556;52.218;9.884;2023-09-19T04:12:14;15.50;99.90
16879;DHT22;8556;52.218;9.884;2023-09-19T04:14:44;15.50;99.90
16879;DHT22;8556;52.218;9.884;2023-09-19T04:17:11;15.50;99.90
16879;DHT22;8556;52.218;9.884;2023-09-19T04:19:39;15.60;99.90
16879;DHT22;8556;52.218;9.884;2023-09-19T04:22:07;15.50;99.90
16879;DHT22;8556;52.218;9.884;2023-09-19T04:24:34;15.40;99.90
16879;DHT22;8556;52.218;9.884;2023-09-19T04:27:01;15.50;99.90
16879;DHT22;8556;52.218;9.884;2023-09-19T04:29:28;15.40;99.90
16879;DHT22;8556;52.218;9.884;2023-09-19T04:31:55;15.50;99.90
16879;DHT22;8556;52.218;9.884;2023-09-19T04:34:23;15.50;99.90
16879;DHT22;8556;52.218;9.884;2023-09-19T04:36:51;15.40;99.90
16879;DHT22;8556;52.218;9.884;2023-09-19T04:39:18;15.30;99.90
16879;DHT22;8556;52.218;9.884;2023-09-19T04:41:46;15.30;99.90
16879;DHT22;8556;52.218;9.884;2023-09-19T04:44:13;15.40;99.90
16879;DHT22;8556;52.218;9.884;2023-09-19T04:46:40;15.30;99.90
16879;DHT22;8556;52.218;9.884;2023-09-19T04:49:07;15.30;99.90
16879;DHT22;8556;52.218;9.884;2023-09-19T04:51:34;15.30;99.90
16879;DHT22;8556;52.218;9.884;2023-09-19T04:54:03;15.30;99.90
16879;DHT22;8556;52.218;9.884;2023-09-19T04:56:30;15.30;99.90
16879;DHT22;8556;52.218;9.884;2023-09-19T04:58:57;15.20;99.90
16879;DHT22;8556;52.218;9.884;2023-09-19T05:01:24;15.20;99.90
16879;DHT22;8556;52.218;9.884;2023-09-19T05:03:51;15.20;99.90
16879;DHT22;8556;52.218;9.884;2023-09-19T05:06:18;15.20;99.90
16879;DHT22;8556;52.218;9.884;2023-09-19T05:08:46;15.20;99.90
16879;DHT22;8556;52.218;9.884;2023-09-19T05:11:16;15.20;99.90
16879;DHT22;8556;52.218;9.884;2023-09-19T05:13:43;15.20;99.90
16879;DHT22;8556;52.218;9.884;2023-09-19T05:16:10;15.10;99.90
16879;DHT22;8556;52.218;9.884;2023-09-19T05:18:37;15.20;99.90
16879;DHT22;8556;52.218;9.884;2023-09-19T05:21:05;15.20;99.90
16879;DHT22;8556;52.218;9.884;2023-09-19T05:23:31;15.10;99.90
16879;DHT22;8556;52.218;9.884;2023-09-19T05:25:58;15.10;99.90
16879;DHT22;8556;52.218;9.884;2023-09-19T05:28:26;15.20;99.90
16879;DHT22;8556;52.218;9.884;2023-09-19T05:30:53;15.20;99.90
16879;DHT22;8556;52.218;9.884;2023-09-19T05:33:20;15.30;99.90
16879;DHT22;8556;52.218;9.884;2023-09-19T05:35:48;15.30;99.90
16879;DHT22;8556;52.218;9.884;2023-09-19T05:38:15;15.10;99.90
16879;DHT22;8556;52.218;9.884;2023-09-19T05:40:45;15.20;99.90
16879;DHT22;8556;52.218;9.884;2023-09-19T05:43:12;15.20;99.90
16879;DHT22;8556;52.218;9.884;2023-09-19T05:45:41;15.20;99.90
16879;DHT22;8556;52.218;9.884;2023-09-19T05:48:09;15.20;99.90
16879;DHT22;8556;52.218;9.884;2023-09-19T05:50:37;15.20;99.90
16879;DHT22;8556;52.218;9.884;2023-09-19T05:53:04;15.20;99.90
16879;DHT22;8556;52.218;9.884;2023-09-19T05:55:31;15.20;99.90
16879;DHT22;8556;52.218;9.884;2023-09-19T05:57:58;15.10;99.90
16879;DHT22;8556;52.218;9.884;2023-09-19T06:00:26;15.10;99.90
16879;DHT22;8556;52.218;9.884;2023-09-19T06:02:55;15.10;99.90
16879;DHT22;8556;52.218;9.884;2023-09-19T06:05:24;15.10;99.90
16879;DHT22;8556;52.218;9.884;2023-09-19T06:07:52;15.20;99.90
16879;DHT22;8556;52.218;9.884;2023-09-19T06:10:19;15.30;99.90
16879;DHT22;8556;52.218;9.884;2023-09-19T06:12:48;15.40;99.90
16879;DHT22;8556;52.218;9.884;2023-09-19T06:15:15;15.50;99.90
16879;DHT22;8556;52.218;9.884;2023-09-19T06:17:47;15.50;99.90
16879;DHT22;8556;52.218;9.884;2023-09-19T06:20:15;15.50;99.90
16879;DHT22;8556;52.218;9.884;2023-09-19T06:22:44;15.40;99.90
16879;DHT22;8556;52.218;9.884;2023-09-19T06:25:12;15.40;99.90
16879;DHT22;8556;52.218;9.884;2023-09-19T06:27:44;15.50;99.90
16879;DHT22;8556;52.218;9.884;2023-09-19T06:30:12;15.50;99.90
16879;DHT22;8556;52.218;9.884;2023-09-19T06:32:39;15.50;99.90
16879;DHT22;8556;52.218;9.884;2023-09-19T06:35:09;15.40;99.90
16879;DHT22;8556;52.218;9.884;2023-09-19T06:37:38;15.40;99.90
16879;DHT22;8556;52.218;9.884;2023-09-19T06:40:07;15.40;99.90
16879;DHT22;8556;52.218;9.884;2023-09-19T06:42:39;15.50;99.90
16879;DHT22;8556;52.218;9.884;2023-09-19T06:45:07;15.50;99.90
16879;DHT22;8556;52.218;9.884;2023-09-19T06:47:34;15.50;99.90
16879;DHT22;8556;52.218;9.884;2023-09-19T06:50:02;15.40;99.90
16879;DHT22;8556;52.218;9.884;2023-09-19T06:52:31;15.50;99.90
16879;DHT22;8556;52.218;9.884;2023-09-19T06:54:59;15.50;99.90
16879;DHT22;8556;52.218;9.884;2023-09-19T06:57:28;15.50;99.90
16879;DHT22;8556;52.218;9.884;2023-09-19T06:59:56;15.50;99.90
16879;DHT22;8556;52.218;9.884;2023-09-19T07:02:22;15.50;99.90
16879;DHT22;8556;52.218;9.884;2023-09-19T07:04:49;15.50;99.90
16879;DHT22;8556;52.218;9.884;2023-09-19T07:07:16;15.50;99.90
16879;DHT22;8556;52.218;9.884;2023-09-19T07:09:43;15.70;99.90
16879;DHT22;8556;52.218;9.884;2023-09-19T07:12:11;15.70;99.90
16879;DHT22;8556;52.218;9.884;2023-09-19T07:14:38;15.80;99.90
16879;DHT22;8556;52.218;9.884;2023-09-19T07:17:05;15.70;99.90
16879;DHT22;8556;52.218;9.884;2023-09-19T07:19:33;15.70;99.90
16879;DHT22;8556;52.218;9.884;2023-09-19T07:22:00;15.70;99.90
16879;DHT22;8556;52.218;9.884;2023-09-19T07:24:28;15.80;99.90
16879;DHT22;8556;52.218;9.884;2023-09-19T07:26:54;15.80;99.90
16879;DHT22;8556;52.218;9.884;2023-09-19T07:29:23;15.80;99.90
16879;DHT22;8556;52.218;9.884;2023-09-19T07:31:51;15.90;99.90
16879;DHT22;8556;52.218;9.884;2023-09-19T07:34:18;16.00;99.90
16879;DHT22;8556;52.218;9.884;2023-09-19T07:36:46;16.00;99.90
16879;DHT22;8556;52.218;9.884;2023-09-19T07:39:13;16.00;99.90
16879;DHT22;8556;52.218;9.884;2023-09-19T07:41:40;15.90;99.90
16879;DHT22;8556;52.218;9.884;2023-09-19T07:44:07;16.10;99.90
16879;DHT22;8556;52.218;9.884;2023-09-19T07:46:36;16.10;99.90
16879;DHT22;8556;52.218;9.884;2023-09-19T07:49:04;16.10;99.90
16879;DHT22;8556;52.218;9.884;2023-09-19T07:51:30;16.20;99.90
16879;DHT22;8556;52.218;9.884;2023-09-19T07:53:58;16.40;99.90
16879;DHT22;8556;52.218;9.884;2023-09-19T07:56:25;16.30;99.90
16879;DHT22;8556;52.218;9.884;2023-09-19T07:58:53;16.30;99.90
16879;DHT22;8556;52.218;9.884;2023-09-19T08:01:20;16.20;99.90
16879;DHT22;8556;52.218;9.884;2023-09-19T08:03:50;16.20;99.90
16879;DHT22;8556;52.218;9.884;2023-09-19T08:06:17;16.20;99.90
16879;DHT22;8556;52.218;9.884;2023-09-19T08:08:44;16.20;99.90
16879;DHT22;8556;52.218;9.884;2023-09-19T08:11:11;16.20;99.90
16879;DHT22;8556;52.218;9.884;2023-09-19T08:13:38;16.20;99.90
16879;DHT22;8556;52.218;9.884;2023-09-19T08:16:08;16.30;99.90
16879;DHT22;8556;52.218;9.884;2023-09-19T08:18:35;16.30;99.90
16879;DHT22;8556;52.218;9.884;2023-09-19T08:21:04;16.30;99.90
16879;DHT22;8556;52.218;9.884;2023-09-19T08:23:33;16.30;99.90
16879;DHT22;8556;52.218;9.884;2023-09-19T08:26:00;16.50;99.90
16879;DHT22;8556;52.218;9.884;2023-09-19T08:28:32;16.50;99.90
16879;DHT22;8556;52.218;9.884;2023-09-19T08:31:02;16.60;99.90
16879;DHT22;8556;52.218;9.884;2023-09-19T08:33:31;16.60;99.90
16879;DHT22;8556;52.218;9.884;2023-09-19T08:35:57;16.70;99.90
16879;DHT22;8556;52.218;9.884;2023-09-19T08:38:26;16.80;99.90
16879;DHT22;8556;52.218;9.884;2023-09-19T08:40:57;16.90;99.90
16879;DHT22;8556;52.218;9.884;2023-09-19T08:43:24;17.00;99.90
16879;DHT22;8556;52.218;9.884;2023-09-19T08:45:53;17.00;99.90
16879;DHT22;8556;52.218;9.884;2023-09-19T08:48:25;17.00;99.90
16879;DHT22;8556;52.218;9.884;2023-09-19T08:50:57;17.20;99.90
16879;DHT22;8556;52.218;9.884;2023-09-19T08:53:34;17.20;99.90
16879;DHT22;8556;52.218;9.884;2023-09-19T08:56:03;17.20;99.90
16879;DHT22;8556;52.218;9.884;2023-09-19T08:58:42;17.40;99.90
16879;DHT22;8556;52.218;9.884;2023-09-19T09:01:10;17.40;99.90
16879;DHT22;8556;52.218;9.884;2023-09-19T09:03:40;17.50;99.90
16879;DHT22;8556;52.218;9.884;2023-09-19T09:06:14;17.60;99.90
16879;DHT22;8556;52.218;9.884;2023-09-19T09:08:43;17.70;99.90
16879;DHT22;8556;52.218;9.884;2023-09-19T09:11:11;17.50;99.90
16879;DHT22;8556;52.218;9.884;2023-09-19T09:13:38;17.40;99.90
16879;DHT22;8556;52.218;9.884;2023-09-19T09:16:07;17.20;99.90
16879;DHT22;8556;52.218;9.884;2023-09-19T09:18:33;17.30;99.90
16879;DHT22;8556;52.218;9.884;2023-09-19T09:21:00;17.50;99.90
16879;DHT22;8556;52.218;9.884;2023-09-19T09:23:27;17.50;99.90
16879;DHT22;8556;52.218;9.884;2023-09-19T09:25:57;17.60;99.90
16879;DHT22;8556;52.218;9.884;2023-09-19T09:28:29;17.50;99.90
16879;DHT22;8556;52.218;9.884;2023-09-19T09:30:56;17.70;99.90
16879;DHT22;8556;52.218;9.884;2023-09-19T09:33:24;17.90;99.90
16879;DHT22;8556;52.218;9.884;2023-09-19T09:35:52;17.90;99.90
16879;DHT22;8556;52.218;9.884;2023-09-19T09:38:22;18.00;99.90
16879;DHT22;8556;52.218;9.884;2023-09-19T09:40:53;18.20;99.90
16879;DHT22;8556;52.218;9.884;2023-09-19T09:43:31;18.10;99.90
16879;DHT22;8556;52.218;9.884;2023-09-19T09:46:12;17.90;99.90
16879;DHT22;8556;52.218;9.884;2023-09-19T09:48:57;18.20;99.90
16879;DHT22;8556;52.218;9.884;2023-09-19T09:51:47;18.20;99.90
16879;DHT22;8556;52.218;9.884;2023-09-19T09:54:24;18.30;99.90
16879;DHT22;8556;52.218;9.884;2023-09-19T09:56:54;18.30;99.90
16879;DHT22;8556;52.218;9.884;2023-09-19T09:59:46;18.30;99.90
16879;DHT22;8556;52.218;9.884;2023-09-19T10:02:13;18.30;99.90
16879;DHT22;8556;52.218;9.884;2023-09-19T10:04:42;18.30;99.90
16879;DHT22;8556;52.218;9.884;2023-09-19T10:07:28;18.50;99.90
16879;DHT22;8556;52.218;9.884;2023-09-19T10:09:59;18.80;99.90
16879;DHT22;8556;52.218;9.884;2023-09-19T10:12:38;18.80;99.90
16879;DHT22;8556;52.218;9.884;2023-09-19T10:15:07;18.70;99.90
16879;DHT22;8556;52.218;9.884;2023-09-19T10:17:36;18.50;99.90
16879;DHT22;8556;52.218;9.884;2023-09-19T10:20:05;18.80;99.90
16879;DHT22;8556;52.218;9.884;2023-09-19T10:22:46;18.60;99.90
16879;DHT22;8556;52.218;9.884;2023-09-19T10:25:24;18.80;99.90
16879;DHT22;8556;52.218;9.884;2023-09-19T10:27:52;18.90;99.90
16879;DHT22;8556;52.218;9.884;2023-09-19T10:30:23;18.80;99.90
16879;DHT22;8556;52.218;9.884;2023-09-19T10:33:00;18.80;99.90
16879;DHT22;8556;52.218;9.884;2023-09-19T10:35:28;19.10;99.90
16879;DHT22;8556;52.218;9.884;2023-09-19T10:37:57;19.10;99.90
16879;DHT22;8556;52.218;9.884;2023-09-19T10:40:27;18.90;99.90
16879;DHT22;8556;52.218;9.884;2023-09-19T10:43:01;19.40;99.90
16879;DHT22;8556;52.218;9.884;2023-09-19T10:45:34;19.50;99.90
16879;DHT22;8556;52.218;9.884;2023-09-19T10:48:04;19.50;99.90
16879;DHT22;8556;52.218;9.884;2023-09-19T10:50:36;19.70;99.90
16879;DHT22;8556;52.218;9.884;2023-09-19T10:53:05;19.60;99.90
16879;DHT22;8556;52.218;9.884;2023-09-19T10:55:34;19.60;99.90
16879;DHT22;8556;52.218;9.884;2023-09-19T10:58:02;19.50;99.90
16879;DHT22;8556;52.218;9.884;2023-09-19T11:00:52;19.80;99.90
16879;DHT22;8556;52.218;9.884;2023-09-19T11:03:21;20.10;99.90
16879;DHT22;8556;52.218;9.884;2023-09-19T11:06:04;19.90;99.90
16879;DHT22;8556;52.218;9.884;2023-09-19T11:08:54;20.00;99.90
16879;DHT22;8556;52.218;9.884;2023-09-19T11:11:44;19.90;99.90
16879;DHT22;8556;52.218;9.884;2023-09-19T11:14:49;19.60;99.90
16879;DHT22;8556;52.218;9.884;2023-09-19T11:17:34;19.70;99.90
16879;DHT22;8556;52.218;9.884;2023-09-19T11:20:30;19.50;99.90
16879;DHT22;8556;52.218;9.884;2023-09-19T11:23:22;19.90;99.90
16879;DHT22;8556;52.218;9.884;2023-09-19T11:25:51;20.00;99.90
16879;DHT22;8556;52.218;9.884;2023-09-19T11:28:32;20.10;99.90
16879;DHT22;8556;52.218;9.884;2023-09-19T11:34:44;20.20;99.90
16879;DHT22;8556;52.218;9.884;2023-09-19T11:40:44;20.10;99.90
16879;DHT22;8556;52.218;9.884;2023-09-19T11:43:32;20.40;99.90
16879;DHT22;8556;52.218;9.884;2023-09-19T11:46:03;20.50;99.90
16879;DHT22;8556;52.218;9.884;2023-09-19T11:48:32;20.50;99.90
16879;DHT22;8556;52.218;9.884;2023-09-19T11:51:03;20.00;99.90
16879;DHT22;8556;52.218;9.884;2023-09-19T11:53:42;19.90;99.90
16879;DHT22;8556;52.218;9.884;2023-09-19T11:56:10;19.90;99.90
16879;DHT22;8556;52.218;9.884;2023-09-19T11:58:37;20.00;99.90
16879;DHT22;8556;52.218;9.884;2023-09-19T12:01:05;19.70;99.90
16879;DHT22;8556;52.218;9.884;2023-09-19T12:03:42;19.50;99.90
16879;DHT22;8556;52.218;9.884;2023-09-19T12:06:13;19.50;99.90
16879;DHT22;8556;52.218;9.884;2023-09-19T12:08:41;20.00;99.90
16879;DHT22;8556;52.218;9.884;2023-09-19T12:11:15;20.10;99.90
16879;DHT22;8556;52.218;9.884;2023-09-19T12:13:44;20.50;99.90
16879;DHT22;8556;52.218;9.884;2023-09-19T12:16:13;20.60;99.90
16879;DHT22;8556;52.218;9.884;2023-09-19T12:18:41;20.50;99.90
16879;DHT22;8556;52.218;9.884;2023-09-19T12:21:23;20.20;99.90
16879;DHT22;8556;52.218;9.884;2023-09-19T12:24:03;20.00;99.90
16879;DHT22;8556;52.218;9.884;2023-09-19T12:26:39;19.80;99.90
16879;DHT22;8556;52.218;9.884;2023-09-19T12:29:14;19.90;99.90
16879;DHT22;8556;52.218;9.884;2023-09-19T12:31:48;20.00;99.90
16879;DHT22;8556;52.218;9.884;2023-09-19T12:34:17;19.90;99.90
16879;DHT22;8556;52.218;9.884;2023-09-19T12:36:46;20.10;99.90
16879;DHT22;8556;52.218;9.884;2023-09-19T12:39:23;19.70;99.90
16879;DHT22;8556;52.218;9.884;2023-09-19T12:41:51;19.80;99.90
16879;DHT22;8556;52.218;9.884;2023-09-19T12:44:19;19.70;99.90
16879;DHT22;8556;52.218;9.884;2023-09-19T12:46:46;19.80;99.90
16879;DHT22;8556;52.218;9.884;2023-09-19T12:49:19;19.80;99.90
16879;DHT22;8556;52.218;9.884;2023-09-19T12:51:48;19.80;99.90
16879;DHT22;8556;52.218;9.884;2023-09-19T12:54:16;19.80;99.90
16879;DHT22;8556;52.218;9.884;2023-09-19T12:56:44;19.70;99.90
16879;DHT22;8556;52.218;9.884;2023-09-19T12:59:15;19.60;99.90
16879;DHT22;8556;52.218;9.884;2023-09-19T13:01:43;19.60;99.90
16879;DHT22;8556;52.218;9.884;2023-09-19T13:04:13;19.50;99.90
16879;DHT22;8556;52.218;9.884;2023-09-19T13:06:44;19.50;99.90
16879;DHT22;8556;52.218;9.884;2023-09-19T13:09:12;19.50;99.90
16879;DHT22;8556;52.218;9.884;2023-09-19T13:11:44;19.70;99.90
16879;DHT22;8556;52.218;9.884;2023-09-19T13:14:16;19.90;99.90
16879;DHT22;8556;52.218;9.884;2023-09-19T13:17:00;19.80;99.90
16879;DHT22;8556;52.218;9.884;2023-09-19T13:19:36;19.80;99.90
16879;DHT22;8556;52.218;9.884;2023-09-19T13:22:03;19.80;99.90
16879;DHT22;8556;52.218;9.884;2023-09-19T13:24:31;19.70;99.90
16879;DHT22;8556;52.218;9.884;2023-09-19T13:27:03;19.50;99.90
16879;DHT22;8556;52.218;9.884;2023-09-19T13:29:32;19.60;99.90
16879;DHT22;8556;52.218;9.884;2023-09-19T13:31:59;19.50;99.90
16879;DHT22;8556;52.218;9.884;2023-09-19T13:34:27;19.50;99.90
16879;DHT22;8556;52.218;9.884;2023-09-19T13:36:55;19.60;99.90
16879;DHT22;8556;52.218;9.884;2023-09-19T13:39:21;19.60;99.90
16879;DHT22;8556;52.218;9.884;2023-09-19T13:41:51;19.50;99.90
16879;DHT22;8556;52.218;9.884;2023-09-19T13:44:18;19.70;99.90
16879;DHT22;8556;52.218;9.884;2023-09-19T13:46:45;19.50;99.90
16879;DHT22;8556;52.218;9.884;2023-09-19T13:49:12;19.50;99.90
16879;DHT22;8556;52.218;9.884;2023-09-19T13:51:39;19.50;99.90
16879;DHT22;8556;52.218;9.884;2023-09-19T13:54:09;19.50;99.90
16879;DHT22;8556;52.218;9.884;2023-09-19T13:56:37;19.60;99.90
16879;DHT22;8556;52.218;9.884;2023-09-19T13:59:05;19.60;99.90
16879;DHT22;8556;52.218;9.884;2023-09-19T14:01:32;19.70;99.90
16879;DHT22;8556;52.218;9.884;2023-09-19T14:03:59;19.70;99.90
16879;DHT22;8556;52.218;9.884;2023-09-19T14:06:31;19.80;99.90
16879;DHT22;8556;52.218;9.884;2023-09-19T14:08:58;20.20;99.90
16879;DHT22;8556;52.218;9.884;2023-09-19T14:11:26;20.30;99.90
16879;DHT22;8556;52.218;9.884;2023-09-19T14:13:53;20.20;99.90
16879;DHT22;8556;52.218;9.884;2023-09-19T14:16:21;20.00;99.90
16879;DHT22;8556;52.218;9.884;2023-09-19T14:18:52;20.10;99.90
16879;DHT22;8556;52.218;9.884;2023-09-19T14:21:18;20.40;99.90
16879;DHT22;8556;52.218;9.884;2023-09-19T14:23:45;20.30;99.90
16879;DHT22;8556;52.218;9.884;2023-09-19T14:26:14;20.20;99.90
16879;DHT22;8556;52.218;9.884;2023-09-19T14:28:44;20.30;99.90
16879;DHT22;8556;52.218;9.884;2023-09-19T14:31:11;20.30;99.90
16879;DHT22;8556;52.218;9.884;2023-09-19T14:33:42;20.00;99.90
16879;DHT22;8556;52.218;9.884;2023-09-19T14:36:10;19.90;99.90
16879;DHT22;8556;52.218;9.884;2023-09-19T14:38:38;19.80;99.90
16879;DHT22;8556;52.218;9.884;2023-09-19T14:41:06;19.60;99.90
16879;DHT22;8556;52.218;9.884;2023-09-19T14:43:34;19.60;99.90
16879;DHT22;8556;52.218;9.884;2023-09-19T14:46:03;19.50;99.90
16879;DHT22;8556;52.218;9.884;2023-09-19T14:48:30;19.50;99.90
16879;DHT22;8556;52.218;9.884;2023-09-19T14:51:03;19.60;99.90
16879;DHT22;8556;52.218;9.884;2023-09-19T14:53:30;20.00;99.90
16879;DHT22;8556;52.218;9.884;2023-09-19T14:56:00;20.30;99.90
16879;DHT22;8556;52.218;9.884;2023-09-19T14:58:30;20.30;99.90
16879;DHT22;8556;52.218;9.884;2023-09-19T15:01:03;20.00;99.90
16879;DHT22;8556;52.218;9.884;2023-09-19T15:03:31;19.90;99.90
16879;DHT22;8556;52.218;9.884;2023-09-19T15:05:59;19.80;99.90
16879;DHT22;8556;52.218;9.884;2023-09-19T15:08:28;19.60;99.90
16879;DHT22;8556;52.218;9.884;2023-09-19T15:10:59;19.60;99.90
16879;DHT22;8556;52.218;9.884;2023-09-19T15:13:29;19.70;99.90
16879;DHT22;8556;52.218;9.884;2023-09-19T15:15:59;20.00;99.90
16879;DHT22;8556;52.218;9.884;2023-09-19T15:18:26;20.10;99.90
16879;DHT22;8556;52.218;9.884;2023-09-19T15:20:53;20.10;99.90
16879;DHT22;8556;52.218;9.884;2023-09-19T15:23:20;20.00;99.90
16879;DHT22;8556;52.218;9.884;2023-09-19T15:25:49;20.10;99.90
16879;DHT22;8556;52.218;9.884;2023-09-19T15:28:16;20.20;99.90
16879;DHT22;8556;52.218;9.884;2023-09-19T15:30:44;20.10;99.90
16879;DHT22;8556;52.218;9.884;2023-09-19T15:33:11;20.10;99.90
16879;DHT22;8556;52.218;9.884;2023-09-19T15:35:38;20.00;99.90
16879;DHT22;8556;52.218;9.884;2023-09-19T15:38:05;19.90;99.90
16879;DHT22;8556;52.218;9.884;2023-09-19T15:40:33;19.90;99.90
16879;DHT22;8556;52.218;9.884;2023-09-19T15:43:01;19.90;99.90
16879;DHT22;8556;52.218;9.884;2023-09-19T15:45:28;19.90;99.90
16879;DHT22;8556;52.218;9.884;2023-09-19T15:47:55;20.20;99.90
16879;DHT22;8556;52.218;9.884;2023-09-19T15:50:22;20.30;99.90
16879;DHT22;8556;52.218;9.884;2023-09-19T15:52:53;20.20;99.90
16879;DHT22;8556;52.218;9.884;2023-09-19T15:55:21;20.20;99.90
16879;DHT22;8556;52.218;9.884;2023-09-19T15:57:48;20.30;99.90
16879;DHT22;8556;52.218;9.884;2023-09-19T16:00:17;20.20;99.90
16879;DHT22;8556;52.218;9.884;2023-09-19T16:02:45;20.10;99.90
16879;DHT22;8556;52.218;9.884;2023-09-19T16:05:16;20.10;99.90
16879;DHT22;8556;52.218;9.884;2023-09-19T16:07:42;20.00;99.90